createdAt,value
2018-07-28T00:02:12.198Z,99574.01
2018-07-28T00:06:55.863Z,99576.77
2018-07-28T00:11:39.862Z,99576.23
2018-07-28T00:16:26.896Z,99577.78
2018-07-28T00:21:10.408Z,99580.80
2018-07-28T00:26:00.380Z,99574.14
2018-07-28T00:30:43.983Z,99566.45
2018-07-28T00:35:27.761Z,99559.91
2018-07-28T00:40:11.233Z,99559.81
2018-07-28T00:44:55.037Z,99559.22
2018-07-28T00:49:38.644Z,99554.15
2018-07-28T00:54:22.438Z,99551.17
2018-07-28T00:59:05.832Z,99555.55
2018-07-28T01:03:50.457Z,99557.50
2018-07-28T01:08:33.939Z,99554.47
2018-07-28T01:13:18.584Z,99550.53
2018-07-28T01:18:02.174Z,99546.04
2018-07-28T01:22:45.671Z,99545.70
2018-07-28T01:27:29.124Z,99551.98
2018-07-28T01:32:12.605Z,99546.13
2018-07-28T01:36:57.350Z,99548.98
2018-07-28T01:41:41.912Z,99549.25
2018-07-28T01:46:28.511Z,99543.19
2018-07-28T01:51:11.973Z,99542.80
2018-07-28T01:55:55.678Z,99534.78
2018-07-28T02:00:39.313Z,99530.02
2018-07-28T02:05:23.110Z,99527.34
2018-07-28T02:10:08.074Z,99522.63
2018-07-28T02:14:52.711Z,99517.70
2018-07-28T02:19:36.317Z,99515.83
2018-07-28T02:24:20.197Z,99517.94
2018-07-28T02:29:03.742Z,99520.75
2018-07-28T02:33:47.027Z,99516.66
2018-07-28T02:38:30.611Z,99509.00
2018-07-28T02:43:15.260Z,99513.35
2018-07-28T02:47:58.675Z,99518.50
2018-07-28T02:52:42.378Z,99523.24
2018-07-28T02:57:26.029Z,99521.03
2018-07-28T03:02:09.591Z,99530.63
2018-07-28T03:06:58.240Z,99524.05
2018-07-28T03:11:42.285Z,99526.91
2018-07-28T03:16:26.009Z,99533.55
2018-07-28T03:21:09.447Z,99536.41
2018-07-28T03:25:53.496Z,99536.37
2018-07-28T03:30:37.001Z,99536.75
2018-07-28T03:35:20.477Z,99532.03
2018-07-28T03:40:04.593Z,99537.05
2018-07-28T03:44:48.209Z,99539.38
2018-07-28T03:49:32.439Z,99542.06
2018-07-28T03:54:16.225Z,99537.22
2018-07-28T03:58:59.851Z,99536.08
2018-07-28T04:03:43.491Z,99536.80
2018-07-28T04:08:27.162Z,99539.86
2018-07-28T04:13:10.755Z,99538.09
2018-07-28T04:17:55.446Z,99549.78
2018-07-28T04:22:39.216Z,99559.38
2018-07-28T04:27:22.894Z,99558.16
2018-07-28T04:32:06.432Z,99560.81
2018-07-28T04:36:49.960Z,99560.53
2018-07-28T04:41:33.445Z,99560.16
2018-07-28T04:46:18.231Z,99560.10
2018-07-28T04:51:22.381Z,99564.09
2018-07-28T04:56:07.955Z,99562.48
2018-07-28T05:00:51.464Z,99560.50
2018-07-28T05:05:38.356Z,99563.12
2018-07-28T05:10:22.044Z,99569.61
2018-07-28T05:15:06.722Z,99561.58
2018-07-28T05:19:50.352Z,99561.10
2018-07-28T05:24:35.489Z,99566.87
2018-07-28T05:29:19.126Z,99565.03
2018-07-28T05:34:02.963Z,99560.67
2018-07-28T05:38:46.444Z,99573.14
2018-07-28T05:43:30.153Z,99560.55
2018-07-28T05:48:13.836Z,99560.27
2018-07-28T05:52:58.490Z,99570.88
2018-07-28T05:57:42.310Z,99572.89
2018-07-28T06:02:28.239Z,99572.83
2018-07-28T06:07:11.611Z,99579.96
2018-07-28T06:11:55.228Z,99582.39
2018-07-28T06:16:38.703Z,99580.92
2018-07-28T06:21:22.127Z,99578.77
2018-07-28T06:26:08.942Z,99569.72
2018-07-28T06:30:52.408Z,99577.23
2018-07-28T06:35:37.411Z,99571.27
2018-07-28T06:40:21.344Z,99571.58
2018-07-28T06:45:06.660Z,99568.27
2018-07-28T06:49:50.138Z,99577.57
2018-07-28T06:54:33.711Z,99574.37
2018-07-28T06:59:17.376Z,99578.02
2018-07-28T07:04:01.009Z,99584.27
2018-07-28T07:08:44.608Z,99587.77
2018-07-28T07:13:33.079Z,99584.45
2018-07-28T07:18:16.720Z,99581.22
2018-07-28T07:23:00.339Z,99579.39
2018-07-28T07:27:43.976Z,99569.88
2018-07-28T07:32:27.413Z,99567.83
2018-07-28T07:37:10.841Z,99569.85
2018-07-28T07:41:54.533Z,99560.19
2018-07-28T07:46:38.030Z,99563.61
2018-07-28T07:51:21.980Z,99568.88
2018-07-28T07:56:07.030Z,99569.17
2018-07-28T08:00:51.612Z,99568.63
2018-07-28T08:05:36.556Z,99562.48
2018-07-28T08:10:20.125Z,99568.61
2018-07-28T08:15:03.885Z,99562.09
2018-07-28T08:19:47.562Z,99560.20
2018-07-28T08:24:34.331Z,99554.77
2018-07-28T08:29:18.336Z,99561.43
2018-07-28T08:34:02.003Z,99554.98
2018-07-28T08:38:45.544Z,99566.04
2018-07-28T08:43:33.530Z,99565.31
2018-07-28T08:48:17.157Z,99560.74
2018-07-28T08:53:01.229Z,99553.25
2018-07-28T08:57:44.901Z,99554.03
2018-07-28T09:08:16.973Z,99557.37
2018-07-28T09:13:00.890Z,99554.88
2018-07-28T09:17:44.578Z,99550.63
2018-07-28T09:22:28.314Z,99543.44
2018-07-28T09:27:28.513Z,99544.45
2018-07-28T09:32:14.693Z,99540.42
2018-07-28T09:36:58.678Z,99542.11
2018-07-28T09:41:45.760Z,99539.08
2018-07-28T09:46:29.545Z,99541.95
2018-07-28T09:51:13.185Z,99549.42
2018-07-28T09:55:56.987Z,99544.37
2018-07-28T10:00:47.234Z,99540.53
2018-07-28T10:05:31.105Z,99540.88
2018-07-28T10:10:15.028Z,99538.64
2018-07-28T10:14:59.664Z,99534.67
2018-07-28T10:19:44.200Z,99521.34
2018-07-28T10:24:28.264Z,99513.70
2018-07-28T10:29:12.353Z,99499.22
2018-07-28T10:33:57.383Z,99493.72
2018-07-28T10:44:06.749Z,99481.08
2018-07-28T10:53:59.372Z,99476.29
2018-07-28T10:58:44.616Z,99476.88
2018-07-28T11:03:28.131Z,99479.06
2018-07-28T11:08:13.215Z,99473.16
2018-07-28T11:12:57.992Z,99471.59
2018-07-28T11:17:41.640Z,99469.53
2018-07-28T11:22:26.358Z,99465.63
2018-07-28T11:27:09.808Z,99468.98
2018-07-28T11:32:05.022Z,99468.68
2018-07-28T11:36:59.251Z,99471.17
2018-07-28T11:41:54.463Z,99473.14
2018-07-28T11:46:38.997Z,99471.02
2018-07-28T11:51:22.777Z,99465.89
2018-07-28T11:56:06.336Z,99458.15
2018-07-28T12:00:49.787Z,99456.86
2018-07-28T12:05:34.413Z,99458.41
2018-07-28T12:10:17.918Z,99444.61
2018-07-28T12:15:05.853Z,99449.05
2018-07-28T12:19:49.452Z,99440.98
2018-07-28T12:24:34.179Z,99433.96
2018-07-28T12:29:17.774Z,99419.82
2018-07-28T12:34:02.273Z,99421.83
2018-07-28T12:38:45.824Z,99411.89
2018-07-28T12:43:33.005Z,99424.55
2018-07-28T12:48:19.464Z,99420.77
2018-07-28T12:53:04.753Z,99422.53
2018-07-28T12:57:48.213Z,99414.13
2018-07-28T13:02:42.417Z,99412.36
2018-07-28T13:07:25.885Z,99419.17
2018-07-28T13:12:15.478Z,99422.49
2018-07-28T13:16:59.086Z,99425.53
2018-07-28T13:21:42.588Z,99429.59
2018-07-28T13:26:26.158Z,99433.49
2018-07-28T13:31:14.544Z,99435.97
2018-07-28T13:35:58.084Z,99437.50
2018-07-28T13:40:41.714Z,99426.64
2018-07-28T13:45:25.454Z,99436.59
2018-07-28T13:50:09.196Z,99430.47
2018-07-28T13:54:54.733Z,99432.85
2018-07-28T13:59:38.357Z,99438.98
2018-07-28T14:04:21.934Z,99446.62
2018-07-28T14:09:09.747Z,99445.49
2018-07-28T14:13:54.617Z,99439.16
2018-07-28T14:18:38.159Z,99438.83
2018-07-28T14:23:26.920Z,99447.25
2018-07-28T14:28:16.686Z,99452.86
2018-07-28T14:33:00.403Z,99461.27
2018-07-28T14:37:56.693Z,99468.67
2018-07-28T14:42:43.769Z,99461.41
2018-07-28T14:47:27.311Z,99461.55
2018-07-28T14:52:10.942Z,99461.70
2018-07-28T14:56:54.543Z,99464.10
2018-07-28T15:01:38.226Z,99463.63
2018-07-28T15:06:21.796Z,99467.65
2018-07-28T15:11:05.484Z,99467.13
2018-07-28T15:15:49.021Z,99468.97
2018-07-28T15:20:32.643Z,99469.66
2018-07-28T15:25:16.040Z,99465.63
2018-07-28T15:30:00.083Z,99462.92
2018-07-28T15:34:43.642Z,99462.43
2018-07-28T15:39:27.163Z,99460.73
2018-07-28T15:44:10.678Z,99466.95
2018-07-28T15:48:54.182Z,99468.65
2018-07-28T15:53:41.602Z,99483.28
2018-07-28T15:58:25.463Z,99490.70
2018-07-28T16:03:13.015Z,99483.47
2018-07-28T16:09:25.831Z,99483.63
2018-07-28T16:14:10.571Z,99486.00
2018-07-28T16:18:58.968Z,99491.38
2018-07-28T16:23:46.538Z,99495.58
2018-07-28T16:28:30.146Z,99499.79
2018-07-28T16:33:14.850Z,99498.29
2018-07-28T16:37:59.121Z,99494.90
2018-07-28T16:42:43.500Z,99490.02
2018-07-28T16:47:28.359Z,99491.55
2018-07-28T16:52:13.074Z,99498.94
2018-07-28T16:56:57.518Z,99499.63
2018-07-28T17:01:47.869Z,99506.53
2018-07-28T17:06:31.502Z,99512.09
2018-07-28T17:11:15.371Z,99508.38
2018-07-28T17:15:59.980Z,99505.16
2018-07-28T17:20:44.860Z,99514.92
2018-07-28T17:25:28.429Z,99513.74
2018-07-28T17:30:12.050Z,99518.46
2018-07-28T17:34:57.844Z,99519.83
2018-07-28T17:39:41.301Z,99513.91
2018-07-28T17:44:24.965Z,99519.13
2018-07-28T17:49:08.492Z,99530.92
2018-07-28T17:53:52.352Z,99535.28
2018-07-28T17:58:42.215Z,99532.78
2018-07-28T18:03:25.998Z,99536.28
2018-07-28T18:08:09.509Z,99517.90
2018-07-28T18:12:55.006Z,99532.65
2018-07-28T18:17:38.703Z,99546.41
2018-07-28T18:22:22.486Z,99543.77
2018-07-28T18:27:06.066Z,99544.78
2018-07-28T18:31:49.613Z,99538.17
2018-07-28T18:36:34.103Z,99542.13
2018-07-28T18:41:21.088Z,99539.80
2018-07-28T18:46:05.296Z,99542.91
2018-07-28T18:50:48.885Z,99545.92
2018-07-28T18:55:33.253Z,99536.77
2018-07-28T19:00:17.938Z,99537.41
2018-07-28T19:05:01.622Z,99543.40
2018-07-28T19:09:53.648Z,99547.80
2018-07-28T19:14:40.040Z,99547.62
2018-07-28T19:19:23.589Z,99542.14
2018-07-28T19:24:08.291Z,99554.44
2018-07-28T19:28:57.256Z,99554.78
2018-07-28T19:33:40.946Z,99559.40
2018-07-28T19:38:24.518Z,99558.02
2018-07-28T19:49:04.727Z,99554.92
2018-07-28T19:53:52.391Z,99550.23
2018-07-28T19:58:36.019Z,99556.69
2018-07-28T20:03:22.747Z,99551.87
2018-07-28T20:08:06.415Z,99548.16
2018-07-28T20:12:51.115Z,99551.26
2018-07-28T20:17:34.597Z,99554.67
2018-07-28T20:22:18.282Z,99558.39
2018-07-28T20:27:01.813Z,99542.05
2018-07-28T20:31:45.401Z,99544.52
2018-07-28T20:36:29.022Z,99538.06
2018-07-28T20:41:12.618Z,99535.53
2018-07-28T20:45:56.102Z,99535.73
2018-07-28T20:50:39.662Z,99535.53
2018-07-28T20:55:23.130Z,99535.34
2018-07-28T21:00:07.562Z,99531.99
2018-07-28T21:04:51.060Z,99529.97
2018-07-28T21:09:34.630Z,99527.60
2018-07-28T21:14:19.243Z,99532.19
2018-07-28T21:19:02.646Z,99533.02
2018-07-28T21:23:46.360Z,99529.44
2018-07-28T21:28:29.682Z,99529.60
2018-07-28T21:33:13.348Z,99530.48
2018-07-28T21:37:56.935Z,99520.91
2018-07-28T21:42:41.495Z,99519.93
2018-07-28T21:47:25.095Z,99513.05
2018-07-28T21:52:08.587Z,99505.86
2018-07-28T21:56:52.821Z,99508.32
2018-07-28T22:01:36.713Z,99505.11
